Time;durP1;ratioP1;P1;durP2;ratioP2;P2;SDS_P1;SDS_P2;PMS_P1;PMS_P2;Temp;Humidity;BMP_temperature;BMP_pressure;BME280_temperature;BME280_humidity;BME280_pressure;Samples;Min_cycle;Max_cycle;Signal;HPM_P1;HPM_P2
2022/12/12 00:01:51;;;;;;;52.53;24.97;;;;;;;-5.07;100.00;100460.31;4949522;28;20166;-78
2022/12/12 00:04:18;;;;;;;54.03;25.83;;;;;;;-5.11;100.00;100466.06;4965148;28;20047;-78
2022/12/12 00:06:45;;;;;;;54.13;26.63;;;;;;;-5.13;100.00;100467.63;4969281;28;20042;-77
2022/12/12 00:09:11;;;;;;;44.77;24.80;;;;;;;-5.13;100.00;100462.53;4959725;28;20050;-78
2022/12/12 00:11:39;;;;;;;56.60;26.52;;;;;;;-5.14;100.00;100465.88;4976635;28;20105;-79
2022/12/12 00:14:05;;;;;;;51.40;24.97;;;;;;;-5.18;100.00;100466.53;4987418;28;20118;-77
2022/12/12 00:16:32;;;;;;;58.27;25.60;;;;;;;-5.22;100.00;100469.72;4968326;28;20047;-77
2022/12/12 00:18:59;;;;;;;52.53;25.20;;;;;;;-5.23;100.00;100466.28;4966588;28;20050;-77
2022/12/12 00:21:28;;;;;;;51.10;25.50;;;;;;;-5.25;100.00;100467.00;4972547;28;20129;-77
2022/12/12 00:23:56;;;;;;;50.40;25.27;;;;;;;-5.25;100.00;100467.00;4954650;28;20102;-78
2022/12/12 00:26:29;;;;;;;47.53;22.83;;;;;;;-5.21;100.00;100467.25;4958251;28;20180;-77
2022/12/12 00:28:57;;;;;;;46.45;22.60;;;;;;;-5.13;100.00;100462.53;4955732;28;20093;-77
2022/12/12 00:31:23;;;;;;;47.60;23.15;;;;;;;-5.13;100.00;100454.00;4987443;28;20497;-77
2022/12/12 00:33:50;;;;;;;50.50;25.93;;;;;;;-5.12;100.00;100455.75;4968751;28;20433;-76
2022/12/12 00:36:20;;;;;;;53.92;27.10;;;;;;;-5.11;100.00;100470.25;4972330;28;20106;-77
2022/12/12 00:38:48;;;;;;;56.63;26.87;;;;;;;-5.10;100.00;100459.25;4977930;28;20046;-76
2022/12/12 00:41:15;;;;;;;53.17;27.13;;;;;;;-5.09;100.00;100461.03;4959071;28;20050;-78
2022/12/12 00:43:42;;;;;;;55.53;26.95;;;;;;;-5.09;100.00;100469.53;4960017;28;20038;-77
2022/12/12 00:46:13;;;;;;;49.72;25.08;;;;;;;-5.10;100.00;100469.47;4963585;28;20504;-77
2022/12/12 00:48:40;;;;;;;54.35;26.27;;;;;;;-5.12;100.00;100474.50;4971500;28;20038;-77
2022/12/12 00:51:14;;;;;;;51.57;24.60;;;;;;;-5.16;100.00;100475.16;4975669;28;20142;-77
2022/12/12 00:53:41;;;;;;;56.80;26.80;;;;;;;-5.18;100.00;100472.50;4996482;28;20499;-78
2022/12/12 00:56:08;;;;;;;51.40;25.87;;;;;;;-5.24;100.00;100473.84;4991103;28;20070;-76
2022/12/12 00:58:34;;;;;;;53.60;26.38;;;;;;;-5.25;100.00;100475.53;4976368;28;20129;-77
2022/12/12 01:01:05;;;;;;;51.63;25.50;;;;;;;-5.26;100.00;100478.03;4969848;28;20047;-76
2022/12/12 01:03:38;;;;;;;59.83;29.65;;;;;;;-5.29;100.00;100486.41;4986507;28;20046;-76
2022/12/12 01:06:05;;;;;;;62.78;28.52;;;;;;;-5.30;100.00;100493.97;4969897;28;20038;-79
2022/12/12 01:08:32;;;;;;;55.80;29.52;;;;;;;-5.33;100.00;100487.91;4941806;28;20055;-77
2022/12/12 01:10:59;;;;;;;60.35;29.23;;;;;;;-5.35;100.00;100493.72;4976936;28;20672;-79
2022/12/12 01:13:26;;;;;;;52.17;26.98;;;;;;;-5.38;100.00;100494.44;4959170;28;20042;-79
2022/12/12 01:15:53;;;;;;;59.20;28.43;;;;;;;-5.42;100.00;100491.63;4985935;28;20524;-79
2022/12/12 01:18:20;;;;;;;63.37;32.77;;;;;;;-5.44;100.00;100489.00;4968183;28;20042;-78
2022/12/12 01:20:47;;;;;;;60.87;28.43;;;;;;;-5.36;100.00;100502.16;4983842;28;20508;-79
2022/12/12 01:23:14;;;;;;;62.88;29.63;;;;;;;-5.31;100.00;100503.28;4972367;28;20125;-78
2022/12/12 01:25:41;;;;;;;63.47;29.60;;;;;;;-5.32;100.00;100504.97;4992970;28;20057;-78
2022/12/12 01:28:08;;;;;;;62.83;30.97;;;;;;;-5.29;100.00;100501.69;4959768;28;20043;-78
2022/12/12 01:30:35;;;;;;;54.38;28.08;;;;;;;-5.25;100.00;100505.25;4971657;28;20501;-78
2022/12/12 01:33:02;;;;;;;58.67;30.30;;;;;;;-5.20;100.00;100509.84;4972304;28;20477;-78
2022/12/12 01:35:30;;;;;;;59.97;28.90;;;;;;;-5.18;100.00;100507.34;4970146;28;20055;-78
2022/12/12 01:37:57;;;;;;;61.40;29.20;;;;;;;-5.12;100.00;100509.34;4970261;28;20049;-78
2022/12/12 01:40:27;;;;;;;64.23;29.10;;;;;;;-5.08;100.00;100514.69;4983826;28;20054;-78
2022/12/12 01:42:55;;;;;;;49.60;27.20;;;;;;;-5.04;100.00;100505.53;4971641;28;20056;-78
2022/12/12 01:46:00;;;;;;;53.90;28.00;;;;;;;-5.06;100.00;100509.66;4951584;28;20049;-78
2022/12/12 01:48:42;;;;;;;52.00;22.95;;;;;;;-5.10;100.00;100505.19;4985088;28;20057;-78
2022/12/12 01:51:15;;;;;;;54.63;26.20;;;;;;;-5.15;100.00;100510.06;4984686;28;20050;-78
2022/12/12 01:53:43;;;;;;;50.03;24.25;;;;;;;-5.22;100.00;100503.75;4980308;28;20063;-78
2022/12/12 01:56:14;;;;;;;57.90;24.90;;;;;;;-5.24;100.00;100507.03;4963994;28;20441;-80
2022/12/12 01:58:45;;;;;;;55.47;26.13;;;;;;;-5.26;100.00;100506.94;4976728;28;20125;-78
2022/12/12 02:01:13;;;;;;;58.93;26.27;;;;;;;-5.26;100.00;100514.59;4965401;28;20401;-78
2022/12/12 02:03:41;;;;;;;51.47;25.80;;;;;;;-5.28;100.00;100513.66;4957302;28;20134;-79
2022/12/12 02:06:14;;;;;;;50.67;24.80;;;;;;;-5.32;100.00;100509.19;4987433;28;20043;-81
2022/12/12 02:08:42;;;;;;;43.17;22.58;;;;;;;-5.35;100.00;100509.03;4957588;28;20046;-79
2022/12/12 02:11:10;;;;;;;40.85;21.58;;;;;;;-5.38;100.00;100509.75;4976001;28;20038;-78
2022/12/12 02:13:36;;;;;;;41.13;20.07;;;;;;;-5.35;100.00;100509.03;4975495;28;20117;-78
2022/12/12 02:16:10;;;;;;;56.40;23.13;;;;;;;-5.35;100.00;100509.03;4972319;28;20047;-78
2022/12/12 02:18:50;;;;;;;38.40;19.67;;;;;;;-5.34;100.00;100500.59;4975453;28;20050;-78
2022/12/12 02:22:03;;;;;;;53.33;23.97;;;;;;;-5.30;100.00;100501.63;4975565;28;20098;-79
2022/12/12 02:25:15;;;;;;;46.63;20.42;;;;;;;-5.33;100.00;100502.34;4964894;28;20118;-79
2022/12/12 02:28:20;;;;;;;46.87;21.20;;;;;;;-5.30;100.00;100505.03;4983939;28;20104;-78
2022/12/12 02:31:08;;;;;;;;;;;;;;;-5.28;100.00;100503.47;4999098;28;20053;-78
2022/12/12 02:34:01;;;;;;;50.07;21.60;;;;;;;-5.27;100.00;100500.09;5001918;28;19928;-78
2022/12/12 02:36:36;;;;;;;45.20;23.70;;;;;;;-5.29;100.00;100505.91;4989215;28;20050;-78
2022/12/12 02:39:23;;;;;;;46.40;22.87;;;;;;;-5.34;100.00;100506.53;4980449;28;20066;-78
2022/12/12 02:42:20;;;;;;;40.00;20.70;;;;;;;-5.32;100.00;100506.63;4996599;28;20049;-78
2022/12/12 02:45:10;;;;;;;45.63;23.57;;;;;;;-5.35;100.00;100514.13;4971311;28;20050;-78
2022/12/12 02:47:45;;;;;;;49.57;24.77;;;;;;;-5.39;100.00;100519.88;4972438;28;20046;-79
2022/12/12 02:50:19;;;;;;;48.27;24.50;;;;;;;-5.45;100.00;100529.75;4968976;28;20048;-77
2022/12/12 02:52:48;;;;;;;46.03;22.40;;;;;;;-5.45;100.00;100530.59;4967598;28;20038;-77
2022/12/12 02:55:15;;;;;;;47.23;24.10;;;;;;;-5.48;100.00;100520.25;4968480;28;20052;-77
2022/12/12 02:57:42;;;;;;;48.55;22.42;;;;;;;-5.55;100.00;100524.16;4972485;28;20570;-77
2022/12/12 03:00:12;;;;;;;43.87;22.17;;;;;;;-5.61;100.00;100523.81;4975409;28;20046;-78
2022/12/12 03:02:51;;;;;;;43.53;22.17;;;;;;;-5.65;100.00;100530.41;4974209;28;20038;-78
2022/12/12 03:09:33;;;;;;;41.45;20.77;;;;;;;-5.65;100.00;100527.00;4983891;28;20129;-76
2022/12/12 03:12:41;;;;;;;37.67;19.20;;;;;;;-5.62;100.00;100531.38;4989979;28;20455;-77
2022/12/12 03:15:21;;;;;;;46.40;20.93;;;;;;;-5.58;100.00;100518.91;4986295;28;20772;-78
2022/12/12 03:18:44;;;;;;;48.27;23.90;;;;;;;-5.62;100.00;100522.03;4967699;28;20043;-79
2022/12/12 03:21:26;;;;;;;40.00;19.73;;;;;;;-5.63;100.00;100527.06;4906021;29;20451;-79
2022/12/12 03:23:59;;;;;;;42.77;22.00;;;;;;;-5.60;100.00;100524.72;4914940;29;20122;-77
2022/12/12 03:26:34;;;;;;;39.77;19.93;;;;;;;-5.56;100.00;100521.53;4938454;28;20513;-79
2022/12/12 03:29:17;;;;;;;47.70;21.87;;;;;;;-5.61;100.00;100520.41;4982432;28;20061;-77
2022/12/12 03:31:51;;;;;;;42.70;20.03;;;;;;;-5.65;100.00;100520.22;4966499;28;20042;-77
2022/12/12 03:34:24;;;;;;;41.95;18.88;;;;;;;-5.69;100.00;100513.19;4969899;28;20042;-77
2022/12/12 03:37:15;;;;;;;44.50;21.57;;;;;;;-5.69;100.00;100510.66;4964781;28;20050;-77
2022/12/12 03:39:50;;;;;;;40.30;19.93;;;;;;;-5.67;100.00;100508.16;4966831;28;20093;-77
2022/12/12 03:42:30;;;;;;;43.07;19.10;;;;;;;-5.67;100.00;100510.72;4978478;28;20043;-77
2022/12/12 03:45:23;;;;;;;46.50;21.50;;;;;;;-5.63;100.00;100512.66;4953984;28;20049;-77
2022/12/12 03:48:08;;;;;;;44.73;20.67;;;;;;;-5.69;100.00;100510.66;4963436;28;20053;-77
2022/12/12 03:50:48;;;;;;;38.95;20.13;;;;;;;-5.76;100.00;100516.22;4967469;28;20043;-77
2022/12/12 03:53:26;;;;;;;46.50;21.07;;;;;;;-5.83;100.00;100514.13;4969068;28;20126;-76
2022/12/12 03:56:13;;;;;;;39.27;18.23;;;;;;;-5.89;100.00;100514.66;4986180;28;20070;-76
2022/12/12 03:58:52;;;;;;;44.23;22.63;;;;;;;-5.88;100.00;100518.09;4963154;28;20708;-77
2022/12/12 04:01:29;;;;;;;47.70;24.90;;;;;;;-5.84;100.00;100517.44;4981937;28;20049;-78
2022/12/12 04:04:36;;;;;;;44.53;20.43;;;;;;;-5.79;100.00;100510.94;4985919;28;20608;-77
2022/12/12 04:07:26;;;;;;;42.47;19.77;;;;;;;-5.83;100.00;100514.13;4974911;28;20529;-77
2022/12/12 04:13:02;;;;;;;42.73;21.07;;;;;;;-5.85;100.00;100534.44;4955340;28;20060;-77
2022/12/12 04:15:57;;;;;;;46.37;18.27;;;;;;;-5.86;100.00;100530.13;4968657;28;20491;-77
2022/12/12 04:18:35;;;;;;;41.73;20.47;;;;;;;-5.83;100.00;100534.50;4965475;28;20444;-80
2022/12/12 04:24:44;;;;;;;42.80;21.63;;;;;;;-5.77;100.00;100539.09;4970188;28;20046;-77
2022/12/12 04:27:23;;;;;;;41.37;19.33;;;;;;;-5.82;100.00;100534.59;4965542;28;20053;-78
2022/12/12 04:30:05;;;;;;;45.43;20.27;;;;;;;-5.86;100.00;100539.44;4961648;28;20055;-77
2022/12/12 04:32:42;;;;;;;41.97;19.67;;;;;;;-5.86;100.00;100542.88;4969048;28;20042;-77
2022/12/12 04:35:22;;;;;;;41.33;19.83;;;;;;;-5.87;100.00;100540.25;4982927;28;20458;-78
2022/12/12 04:37:59;;;;;;;35.37;17.73;;;;;;;-5.93;100.00;100543.34;4963919;28;20141;-78
2022/12/12 04:40:34;;;;;;;40.33;21.00;;;;;;;-5.95;100.00;100538.94;4983685;28;20076;-77
2022/12/12 04:43:07;;;;;;;49.20;19.27;;;;;;;-5.96;100.00;100534.63;4965822;28;20054;-77
2022/12/12 04:45:43;;;;;;;52.30;24.93;;;;;;;-6.00;100.00;100536.16;4970620;28;20045;-78
2022/12/12 04:48:16;;;;;;;47.90;23.43;;;;;;;-6.00;100.00;100531.97;4964429;28;20544;-78
2022/12/12 04:50:48;;;;;;;43.73;20.63;;;;;;;-6.01;100.00;100542.03;4961570;28;20057;-79
2022/12/12 04:53:20;;;;;;;49.40;20.43;;;;;;;-6.03;100.00;100536.88;4969376;28;20721;-79
2022/12/12 04:55:51;;;;;;;45.27;20.23;;;;;;;-6.06;100.00;100533.25;4954411;28;20057;-78
2022/12/12 04:58:18;;;;;;;39.43;18.37;;;;;;;-6.09;100.00;100543.28;4963520;28;20054;-78
2022/12/12 05:01:04;;;;;;;42.37;19.07;;;;;;;-6.12;100.00;100541.44;4969637;28;20092;-78
2022/12/12 05:03:54;;;;;;;43.83;21.27;;;;;;;-6.15;100.00;100539.59;4972053;28;20105;-78
2022/12/12 05:06:48;;;;;;;45.17;19.40;;;;;;;-6.15;100.00;100546.38;4965728;28;20054;-78
2022/12/12 05:09:17;;;;;;;46.65;18.35;;;;;;;-6.22;100.00;100552.81;4983530;28;20058;-78
2022/12/12 05:11:44;;;;;;;37.97;18.13;;;;;;;-6.27;100.00;100550.78;4967936;28;20181;-78
2022/12/12 05:14:11;;;;;;;40.03;19.70;;;;;;;-6.27;100.00;100553.31;4949549;28;20090;-78
2022/12/12 05:16:53;;;;;;;37.47;18.80;;;;;;;-6.32;100.00;100556.47;4960494;28;20637;-78
2022/12/12 05:19:20;;;;;;;40.07;17.77;;;;;;;-6.33;100.00;100549.63;4969713;28;20288;-78
2022/12/12 05:21:46;;;;;;;41.80;18.50;;;;;;;-6.34;100.00;100554.63;4971891;28;20550;-78
2022/12/12 05:24:13;;;;;;;40.10;18.50;;;;;;;-6.35;100.00;100546.13;4970658;28;20062;-78
2022/12/12 05:26:40;;;;;;;32.00;16.60;;;;;;;-6.38;100.00;100552.72;4969433;28;20042;-78
2022/12/12 05:29:07;;;;;;;43.43;17.80;;;;;;;-6.42;100.00;100554.19;4948725;28;20192;-78
2022/12/12 05:31:33;;;;;;;42.17;17.60;;;;;;;-6.40;100.00;100555.19;4970822;28;20702;-78
2022/12/12 05:34:00;;;;;;;33.50;16.40;;;;;;;-6.42;100.00;100551.66;4968624;28;20053;-78
2022/12/12 05:36:27;;;;;;;40.77;18.43;;;;;;;-6.43;100.00;100554.13;4984441;28;20704;-78
2022/12/12 05:38:57;;;;;;;38.00;19.60;;;;;;;-6.46;100.00;100557.34;4969141;28;20042;-78
2022/12/12 05:41:26;;;;;;;34.40;17.40;;;;;;;-6.54;100.00;100556.06;4966381;28;20101;-77
2022/12/12 05:43:52;;;;;;;38.73;18.50;;;;;;;-6.55;100.00;100560.25;4952361;28;20054;-78
2022/12/12 05:46:19;;;;;;;44.63;17.97;;;;;;;-6.58;100.00;100560.06;4952830;28;20055;-78
2022/12/12 05:48:49;;;;;;;44.70;18.27;;;;;;;-6.55;100.00;100557.69;4967999;28;20042;-77
2022/12/12 05:51:18;;;;;;;42.07;17.93;;;;;;;-6.53;100.00;100560.31;4957073;28;20656;-77
2022/12/12 05:53:46;;;;;;;41.77;17.93;;;;;;;-6.55;100.00;100564.47;4969759;28;20065;-77
2022/12/12 05:56:51;;;;;;;42.07;16.77;;;;;;;-6.53;100.00;100562.88;4971527;28;20928;-79
2022/12/12 05:59:17;;;;;;;;;;;;;;;-6.48;100.00;100576.75;4966852;28;20047;-78
2022/12/12 06:01:44;;;;;;;32.57;16.07;;;;;;;-6.44;100.00;100575.28;4991610;28;19928;-78
2022/12/12 06:04:11;;;;;;;28.83;13.83;;;;;;;-6.42;100.00;100573.72;4973458;28;20117;-77
2022/12/12 06:06:38;;;;;;;28.97;14.30;;;;;;;-6.41;100.00;100571.25;4977927;28;20096;-79
2022/12/12 06:09:04;;;;;;;33.27;17.70;;;;;;;-6.37;100.00;100574.84;4972550;28;20533;-79
2022/12/12 06:12:06;;;;;;;33.57;15.90;;;;;;;-6.32;100.00;100584.50;4954875;28;20038;-78
2022/12/12 06:14:33;;;;;;;34.93;14.53;;;;;;;-6.29;100.00;100588.03;4963722;28;20129;-80
2022/12/12 06:17:00;;;;;;;34.07;15.47;;;;;;;-6.28;100.00;100582.13;4964857;28;20130;-77
2022/12/12 06:19:26;;;;;;;38.67;15.90;;;;;;;-6.24;100.00;100576.44;4967914;28;20049;-78
2022/12/12 06:21:53;;;;;;;39.00;14.40;;;;;;;-6.27;100.00;100579.69;4949873;28;20576;-79
2022/12/12 06:24:19;;;;;;;31.03;15.53;;;;;;;-6.26;100.00;100578.00;4966585;28;20050;-79
2022/12/12 06:26:46;;;;;;;35.83;15.83;;;;;;;-6.23;100.00;100589.25;4953718;28;20081;-77
2022/12/12 06:29:39;;;;;;;33.57;17.17;;;;;;;-6.20;100.00;100591.09;4969169;28;20956;-80
2022/12/12 06:32:06;;;;;;;33.23;14.97;;;;;;;-6.19;100.00;100591.19;4963777;28;20064;-79
2022/12/12 06:34:33;;;;;;;37.77;17.47;;;;;;;-6.16;100.00;100587.94;4973294;28;20038;-79
2022/12/12 06:37:00;;;;;;;36.73;17.87;;;;;;;-6.11;100.00;100593.28;4967946;28;20046;-79
2022/12/12 06:39:28;;;;;;;41.00;18.77;;;;;;;-6.11;100.00;100595.81;4975595;28;20116;-78
2022/12/12 06:41:56;;;;;;;38.93;16.40;;;;;;;-6.14;100.00;100601.63;4948360;28;20046;-79
2022/12/12 06:44:22;;;;;;;33.13;16.73;;;;;;;-6.15;100.00;100598.22;4968430;28;20039;-79
2022/12/12 06:46:49;;;;;;;42.90;17.03;;;;;;;-6.15;100.00;100594.81;4968034;28;20851;-80
2022/12/12 06:49:15;;;;;;;35.53;16.60;;;;;;;-6.18;100.00;100598.06;4971659;28;20121;-79
2022/12/12 06:51:43;;;;;;;36.90;16.90;;;;;;;-6.13;100.00;100615.25;4984698;28;20113;-79
2022/12/12 06:54:16;;;;;;;38.47;17.47;;;;;;;-6.13;100.00;100605.94;4970112;28;20038;-79
2022/12/12 06:56:43;;;;;;;41.13;18.47;;;;;;;-6.14;100.00;100601.63;4951906;28;20129;-78
2022/12/12 06:59:14;;;;;;;42.47;17.73;;;;;;;-6.12;100.00;100607.69;4963567;28;20049;-79
2022/12/12 07:01:40;;;;;;;46.60;17.87;;;;;;;-6.10;100.00;100610.34;4967205;28;20211;-79
2022/12/12 07:04:12;;;;;;;27.93;15.30;;;;;;;-6.12;100.00;100609.38;4966213;28;20038;-78
2022/12/12 07:06:38;;;;;;;36.63;18.40;;;;;;;-6.15;100.00;100625.38;4973108;28;20108;-78
2022/12/12 07:09:06;;;;;;;35.03;17.30;;;;;;;-6.19;100.00;100624.31;4955295;28;20050;-78
2022/12/12 07:11:34;;;;;;;36.97;17.83;;;;;;;-6.18;100.00;100632.81;4971751;28;20527;-78
2022/12/12 07:14:04;;;;;;;35.73;18.10;;;;;;;-6.18;100.00;100632.81;4984607;28;20249;-78
2022/12/12 07:16:31;;;;;;;38.73;18.43;;;;;;;-6.20;100.00;100636.97;4969677;28;20054;-78
2022/12/12 07:18:57;;;;;;;44.27;18.53;;;;;;;-6.22;100.00;100626.69;4986845;28;20046;-77
2022/12/12 07:21:24;;;;;;;38.60;18.83;;;;;;;-6.19;100.00;100642.16;4982992;28;20658;-77
2022/12/12 07:23:51;;;;;;;42.50;17.57;;;;;;;-6.23;100.00;100642.75;4980983;28;20121;-77
2022/12/12 07:26:21;;;;;;;35.30;15.57;;;;;;;-6.23;100.00;100634.22;4968597;28;20034;-78
2022/12/12 07:28:48;;;;;;;37.57;17.23;;;;;;;-6.26;100.00;100637.47;4968268;28;20050;-78
2022/12/12 07:31:18;;;;;;;38.60;17.67;;;;;;;-6.28;100.00;100640.72;4984143;28;20064;-78
2022/12/12 07:33:45;;;;;;;30.60;15.60;;;;;;;-6.30;100.00;100647.41;4974816;28;20070;-78
2022/12/12 07:36:14;;;;;;;33.40;16.77;;;;;;;-6.33;100.00;100646.44;4977128;28;20129;-78
2022/12/12 07:38:42;;;;;;;36.63;17.07;;;;;;;-6.38;100.00;100646.97;4981614;28;20057;-80
2022/12/12 07:41:12;;;;;;;42.37;18.93;;;;;;;-6.41;100.00;100645.09;4965272;28;20429;-79
2022/12/12 07:43:41;;;;;;;37.50;16.83;;;;;;;-6.44;100.00;100647.47;4986096;28;20103;-78
2022/12/12 07:46:11;;;;;;;40.97;16.73;;;;;;;-6.45;100.00;100642.28;4973883;28;20030;-78
2022/12/12 07:48:37;;;;;;;41.63;18.77;;;;;;;-6.43;100.00;100643.25;4989870;28;20034;-78
2022/12/12 07:51:04;;;;;;;41.93;19.60;;;;;;;-6.37;100.00;100654.69;4971561;28;20042;-78
2022/12/12 07:53:31;;;;;;;48.93;19.27;;;;;;;-6.30;100.00;100655.91;4977060;28;20042;-78
2022/12/12 07:55:58;;;;;;;44.97;18.60;;;;;;;-6.32;100.00;100650.75;4993200;28;20099;-79
2022/12/12 07:58:24;;;;;;;39.97;17.83;;;;;;;-6.28;100.00;100658.53;4970570;28;20054;-77
2022/12/12 08:00:51;;;;;;;36.30;17.03;;;;;;;-6.26;100.00;100660.41;4970684;28;20452;-77
2022/12/12 08:03:17;;;;;;;50.47;20.83;;;;;;;-6.23;100.00;100654.59;4993809;28;20046;-77
2022/12/12 08:05:44;;;;;;;45.47;19.10;;;;;;;-6.15;100.00;100650.84;4966367;28;20069;-77
2022/12/12 08:08:11;;;;;;;43.70;19.80;;;;;;;-6.11;100.00;100654.44;4975063;28;20464;-77
2022/12/12 08:10:39;;;;;;;34.77;16.93;;;;;;;-6.06;100.00;100646.28;4956520;28;20049;-77
2022/12/12 08:13:06;;;;;;;29.80;16.80;;;;;;;-6.03;100.00;100653.22;4969228;28;20110;-78
2022/12/12 08:15:33;;;;;;;46.33;18.20;;;;;;;-5.99;100.00;100656.03;4969062;28;20038;-77
2022/12/12 08:18:00;;;;;;;36.97;17.37;;;;;;;-5.99;100.00;100653.47;4973925;28;20070;-77
2022/12/12 08:20:26;;;;;;;38.33;18.33;;;;;;;-5.95;100.00;100659.59;4960384;28;20046;-77
2022/12/12 08:22:53;;;;;;;42.37;18.77;;;;;;;-5.92;100.00;100661.47;4970983;28;20130;-77
2022/12/12 08:25:19;;;;;;;33.57;17.30;;;;;;;-5.91;100.00;100659.00;4963143;28;20129;-77
2022/12/12 08:27:46;;;;;;;32.10;16.60;;;;;;;-5.90;100.00;100657.34;4957428;28;20042;-78
2022/12/12 08:30:13;;;;;;;36.17;15.57;;;;;;;-5.88;100.00;100645.53;4964497;28;20559;-77
2022/12/12 08:32:40;;;;;;;33.80;16.87;;;;;;;-5.85;100.00;100654.25;4968244;28;20034;-77
2022/12/12 08:35:07;;;;;;;35.27;16.60;;;;;;;-5.79;100.00;100652.84;4966655;28;20709;-77
2022/12/12 08:37:34;;;;;;;36.63;16.77;;;;;;;-5.74;100.00;100651.44;4971953;28;20049;-78
2022/12/12 08:40:00;;;;;;;42.03;17.83;;;;;;;-5.68;100.00;100656.88;4988671;28;20101;-77
2022/12/12 08:42:27;;;;;;;36.23;17.87;;;;;;;-5.65;100.00;100659.59;4972890;28;20039;-77
2022/12/12 08:44:54;;;;;;;41.63;18.10;;;;;;;-5.61;100.00;100661.53;4990326;28;20042;-77
2022/12/12 08:47:20;;;;;;;34.80;16.90;;;;;;;-5.59;100.00;100656.50;4957524;28;20043;-77
2022/12/12 08:49:47;;;;;;;43.33;19.37;;;;;;;-5.58;100.00;100664.28;4974061;28;20048;-77
2022/12/12 08:52:14;;;;;;;35.60;16.83;;;;;;;-5.57;100.00;100662.59;4958819;28;20232;-77
2022/12/12 08:54:40;;;;;;;45.97;20.00;;;;;;;-5.55;100.00;100666.97;4968589;28;20073;-77
2022/12/12 08:57:07;;;;;;;39.53;17.57;;;;;;;-5.51;100.00;100668.03;4971936;28;20049;-79
2022/12/12 08:59:33;;;;;;;39.10;16.73;;;;;;;-5.44;100.00;100664.16;4968908;28;20047;-77
2022/12/12 09:02:00;;;;;;;44.37;19.37;;;;;;;-5.40;100.00;100660.97;4964473;28;20073;-78
2022/12/12 09:04:26;;;;;;;33.93;18.87;;;;;;;-5.41;100.00;100662.66;4967761;28;20046;-77
2022/12/12 09:06:53;;;;;;;44.53;19.10;;;;;;;-5.38;100.00;100665.38;4969234;28;20047;-77
2022/12/12 09:09:20;;;;;;;48.20;18.83;;;;;;;-5.32;100.00;100657.16;4970277;28;20051;-77
2022/12/12 09:11:47;;;;;;;32.53;16.10;;;;;;;-5.28;100.00;100658.22;4967517;28;20050;-77
2022/12/12 09:14:13;;;;;;;38.73;18.07;;;;;;;-5.25;100.00;100661.81;4956680;28;20061;-77
2022/12/12 09:16:40;;;;;;;48.97;18.67;;;;;;;-5.22;100.00;100661.97;4978111;28;20046;-77
2022/12/12 09:19:07;;;;;;;39.42;18.63;;;;;;;-5.19;100.00;100661.28;4986060;28;20046;-77
2022/12/12 09:21:34;;;;;;;39.28;17.40;;;;;;;-5.15;100.00;100658.97;4952667;28;20093;-77
2022/12/12 09:24:01;;;;;;;29.93;15.70;;;;;;;-5.09;100.00;100660.97;4949961;28;20050;-78
2022/12/12 09:26:28;;;;;;;42.53;18.77;;;;;;;-5.05;100.00;100662.91;4962162;28;20034;-77
2022/12/12 09:28:55;;;;;;;38.57;19.93;;;;;;;-5.00;100.00;100671.69;4975429;28;20136;-77
2022/12/12 09:31:22;;;;;;;37.83;16.87;;;;;;;-4.92;100.00;100666.13;4983628;28;20034;-77
2022/12/12 09:33:49;;;;;;;34.83;18.87;;;;;;;-4.87;100.00;100669.81;4954043;28;20047;-77
2022/12/12 09:36:16;;;;;;;39.10;16.20;;;;;;;-4.89;100.00;100666.28;4968421;28;20077;-77
2022/12/12 09:38:44;;;;;;;36.63;17.57;;;;;;;-4.88;100.00;100673.16;4955447;28;20069;-78
2022/12/12 09:41:16;;;;;;;27.98;15.40;;;;;;;-4.79;100.00;100668.53;4957292;28;20082;-78
2022/12/12 09:44:01;;;;;;;43.78;17.25;;;;;;;-4.70;100.00;100676.66;4968750;28;20137;-78
2022/12/12 09:46:38;;;;;;;34.10;16.47;;;;;;;-4.60;100.00;100672.03;4965503;28;20038;-78
2022/12/12 09:49:15;;;;;;;37.05;18.63;;;;;;;-4.56;100.00;100671.41;4974506;28;20043;-77
2022/12/12 09:51:46;;;;;;;35.83;17.03;;;;;;;-4.52;100.00;100670.78;4977393;28;20065;-78
2022/12/12 09:54:16;;;;;;;37.65;18.10;;;;;;;-4.46;100.00;100670.22;4971549;28;20441;-78
2022/12/12 09:57:20;;;;;;;40.47;19.40;;;;;;;-4.42;100.00;100670.47;4956239;28;20054;-78
2022/12/12 10:00:16;;;;;;;42.08;18.88;;;;;;;-4.29;100.00;100671.97;4967077;28;20061;-78
2022/12/12 10:03:23;;;;;;;37.23;18.13;;;;;;;-4.17;100.00;100669.19;4973503;28;20093;-77
2022/12/12 10:06:03;;;;;;;36.08;16.88;;;;;;;-4.07;100.00;100673.06;4994304;28;20030;-78
2022/12/12 10:09:00;;;;;;;37.95;16.95;;;;;;;-3.99;100.00;100666.63;4997297;28;20047;-78
2022/12/12 10:11:51;;;;;;;35.85;17.40;;;;;;;-3.90;100.00;100673.91;4974191;28;20074;-78
2022/12/12 10:14:48;;;;;;;36.33;16.97;;;;;;;-3.86;100.00;100670.69;4971406;28;20383;-77
2022/12/12 10:17:23;;;;;;;37.30;19.17;;;;;;;-3.79;100.00;100677.88;4985225;28;20062;-77
2022/12/12 10:19:55;;;;;;;36.72;17.50;;;;;;;-3.71;100.00;100675.69;4983686;28;20051;-77
2022/12/12 10:22:47;;;;;;;31.73;15.48;;;;;;;-3.67;100.00;100680.16;4976690;28;20048;-77
2022/12/12 10:25:27;;;;;;;35.88;16.90;;;;;;;-3.61;100.00;100672.78;4973216;28;20489;-77
2022/12/12 10:28:09;;;;;;;38.45;17.65;;;;;;;-3.56;100.00;100679.00;4969552;28;20038;-77
2022/12/12 10:30:50;;;;;;;32.30;14.38;;;;;;;-3.46;100.00;100677.75;4989624;28;20427;-77
2022/12/12 10:33:50;;;;;;;33.08;15.45;;;;;;;-3.37;100.00;100679.88;4965385;28;20069;-78
2022/12/12 10:36:58;;;;;;;31.75;16.27;;;;;;;-3.35;100.00;100686.84;4986199;28;20058;-79
2022/12/12 10:40:35;;;;;;;30.88;14.40;;;;;;;-3.34;100.00;100680.03;4974907;28;20121;-77
2022/12/12 10:43:28;;;;;;;31.92;15.02;;;;;;;-3.25;100.00;100682.16;4954825;28;20042;-77
2022/12/12 10:46:30;;;;;;;38.70;18.15;;;;;;;-3.26;100.00;100675.28;4971078;28;20054;-77
2022/12/12 10:48:56;;;;;;;30.00;16.20;;;;;;;-3.24;100.00;100676.22;4965675;28;20169;-79
2022/12/12 10:51:27;;;;;;;35.03;17.92;;;;;;;-3.21;100.00;100673.81;4958255;28;20050;-77
2022/12/12 10:53:55;;;;;;;34.17;16.52;;;;;;;-3.19;100.00;100667.94;4970949;28;20070;-79
2022/12/12 10:56:28;;;;;;;28.63;13.88;;;;;;;-3.16;100.00;100662.97;4979664;28;20474;-79
2022/12/12 10:59:00;;;;;;;32.47;16.95;;;;;;;-3.15;100.00;100658.75;4956222;28;20058;-79
2022/12/12 11:01:37;;;;;;;31.80;15.52;;;;;;;-3.10;100.00;100659.81;4975234;28;20137;-79
2022/12/12 11:04:07;;;;;;;26.25;14.63;;;;;;;-3.09;100.00;100658.13;4961983;28;20557;-79
2022/12/12 11:06:49;;;;;;;38.42;16.13;;;;;;;-3.11;100.00;100660.63;4972965;28;20051;-79
2022/12/12 11:09:26;;;;;;;30.27;15.98;;;;;;;-3.12;100.00;100658.88;4965270;28;20054;-80
2022/12/12 11:12:19;;;;;;;37.25;16.80;;;;;;;-3.08;100.00;100662.47;4974998;28;20054;-79
2022/12/12 11:14:53;;;;;;;27.40;13.55;;;;;;;-3.07;100.00;100653.97;4975882;28;20085;-78
2022/12/12 11:17:27;;;;;;;29.52;15.23;;;;;;;-3.04;100.00;100655.00;4958528;28;20488;-77
2022/12/12 11:19:57;;;;;;;34.83;15.80;;;;;;;-3.02;100.00;100658.50;4972806;28;20042;-78
2022/12/12 11:22:25;;;;;;;35.60;18.35;;;;;;;-2.98;100.00;100663.78;4970480;28;20042;-79
2022/12/12 11:24:52;;;;;;;29.42;14.90;;;;;;;-2.96;100.00;100649.34;4960813;28;20056;-79
2022/12/12 11:27:38;;;;;;;32.45;16.33;;;;;;;-2.94;100.00;100650.28;4976257;28;20065;-79
2022/12/12 11:30:10;;;;;;;33.17;15.57;;;;;;;-2.89;100.00;100646.25;4968301;28;20042;-79
2022/12/12 11:32:44;;;;;;;36.25;16.42;;;;;;;-2.87;100.00;100647.19;4969684;28;20545;-79
2022/12/12 11:35:38;;;;;;;36.45;17.00;;;;;;;-2.80;100.00;100645.78;4971566;28;20042;-79
2022/12/12 11:38:22;;;;;;;34.78;15.95;;;;;;;-2.77;100.00;100641.66;4949714;28;20559;-79
2022/12/12 11:41:01;;;;;;;;;;;;;;;-2.75;100.00;100642.63;4972990;28;20113;-79
2022/12/12 11:43:36;;;;;;;26.05;14.27;;;;;;;-2.74;100.00;100636.66;4959855;28;19933;-79